sensor_id;sensor_type;location;lat;lon;timestamp;P1;durP1;ratioP1;P2;durP2;ratioP2
18217;SDS011;9234;49.344;11.120;2023-07-31T00:00:04;3.53;;;1.33;;
18217;SDS011;9234;49.344;11.120;2023-07-31T00:02:37;7.38;;;1.48;;
18217;SDS011;9234;49.344;11.120;2023-07-31T00:05:07;2.75;;;1.25;;
18217;SDS011;9234;49.344;11.120;2023-07-31T00:07:36;3.38;;;1.30;;
18217;SDS011;9234;49.344;11.120;2023-07-31T00:10:05;2.80;;;1.30;;
18217;SDS011;9234;49.344;11.120;2023-07-31T00:12:35;1.90;;;1.02;;
18217;SDS011;9234;49.344;11.120;2023-07-31T00:15:03;2.58;;;1.50;;
18217;SDS011;9234;49.344;11.120;2023-07-31T00:17:33;4.43;;;1.48;;
18217;SDS011;9234;49.344;11.120;2023-07-31T00:20:04;3.63;;;1.42;;
18217;SDS011;9234;49.344;11.120;2023-07-31T00:22:33;5.78;;;1.83;;
18217;SDS011;9234;49.344;11.120;2023-07-31T00:25:03;4.03;;;2.15;;
18217;SDS011;9234;49.344;11.120;2023-07-31T00:27:32;5.90;;;1.45;;
18217;SDS011;9234;49.344;11.120;2023-07-31T00:30:01;5.55;;;1.50;;
18217;SDS011;9234;49.344;11.120;2023-07-31T00:32:32;3.53;;;1.13;;
18217;SDS011;9234;49.344;11.120;2023-07-31T00:35:00;4.43;;;1.60;;
18217;SDS011;9234;49.344;11.120;2023-07-31T00:37:31;3.08;;;1.23;;
18217;SDS011;9234;49.344;11.120;2023-07-31T00:40:01;5.18;;;1.73;;
18217;SDS011;9234;49.344;11.120;2023-07-31T00:42:30;5.20;;;1.30;;
18217;SDS011;9234;49.344;11.120;2023-07-31T00:45:00;3.97;;;1.00;;
18217;SDS011;9234;49.344;11.120;2023-07-31T00:47:29;3.67;;;1.35;;
18217;SDS011;9234;49.344;11.120;2023-07-31T00:49:58;3.00;;;1.33;;
18217;SDS011;9234;49.344;11.120;2023-07-31T00:52:26;3.20;;;1.23;;
18217;SDS011;9234;49.344;11.120;2023-07-31T00:54:56;4.53;;;1.25;;
18217;SDS011;9234;49.344;11.120;2023-07-31T00:57:25;4.25;;;1.17;;
18217;SDS011;9234;49.344;11.120;2023-07-31T00:59:53;3.47;;;1.48;;
18217;SDS011;9234;49.344;11.120;2023-07-31T01:02:21;5.93;;;1.83;;
18217;SDS011;9234;49.344;11.120;2023-07-31T01:04:51;3.55;;;1.83;;
18217;SDS011;9234;49.344;11.120;2023-07-31T01:07:20;4.50;;;1.15;;
18217;SDS011;9234;49.344;11.120;2023-07-31T01:10:11;2.65;;;1.20;;
18217;SDS011;9234;49.344;11.120;2023-07-31T01:12:48;3.92;;;1.20;;
18217;SDS011;9234;49.344;11.120;2023-07-31T01:15:18;3.17;;;1.65;;
18217;SDS011;9234;49.344;11.120;2023-07-31T01:17:48;4.07;;;1.70;;
18217;SDS011;9234;49.344;11.120;2023-07-31T01:20:17;2.10;;;1.20;;
18217;SDS011;9234;49.344;11.120;2023-07-31T01:26:07;4.72;;;1.95;;
18217;SDS011;9234;49.344;11.120;2023-07-31T01:28:45;3.03;;;1.50;;
18217;SDS011;9234;49.344;11.120;2023-07-31T01:31:24;4.72;;;1.60;;
18217;SDS011;9234;49.344;11.120;2023-07-31T01:33:56;4.03;;;1.17;;
18217;SDS011;9234;49.344;11.120;2023-07-31T01:36:30;2.88;;;1.17;;
18217;SDS011;9234;49.344;11.120;2023-07-31T01:38:59;1.85;;;1.45;;
18217;SDS011;9234;49.344;11.120;2023-07-31T01:41:31;5.10;;;1.55;;
18217;SDS011;9234;49.344;11.120;2023-07-31T01:43:59;3.20;;;1.33;;
18217;SDS011;9234;49.344;11.120;2023-07-31T01:46:27;4.53;;;1.20;;
18217;SDS011;9234;49.344;11.120;2023-07-31T01:48:56;5.60;;;2.03;;
18217;SDS011;9234;49.344;11.120;2023-07-31T01:51:25;4.38;;;1.55;;
18217;SDS011;9234;49.344;11.120;2023-07-31T01:53:53;2.95;;;1.38;;
18217;SDS011;9234;49.344;11.120;2023-07-31T01:56:21;2.92;;;1.42;;
18217;SDS011;9234;49.344;11.120;2023-07-31T01:58:51;3.65;;;1.50;;
18217;SDS011;9234;49.344;11.120;2023-07-31T02:01:19;4.75;;;1.40;;
18217;SDS011;9234;49.344;11.120;2023-07-31T02:03:50;3.45;;;1.73;;
18217;SDS011;9234;49.344;11.120;2023-07-31T02:06:20;5.75;;;1.55;;
18217;SDS011;9234;49.344;11.120;2023-07-31T02:08:49;2.35;;;1.27;;
18217;SDS011;9234;49.344;11.120;2023-07-31T02:11:17;3.63;;;1.70;;
18217;SDS011;9234;49.344;11.120;2023-07-31T02:13:48;4.20;;;1.67;;
18217;SDS011;9234;49.344;11.120;2023-07-31T02:16:18;5.25;;;1.52;;
18217;SDS011;9234;49.344;11.120;2023-07-31T02:18:46;6.47;;;1.95;;
18217;SDS011;9234;49.344;11.120;2023-07-31T02:21:15;3.63;;;1.35;;
18217;SDS011;9234;49.344;11.120;2023-07-31T02:23:47;4.32;;;1.48;;
18217;SDS011;9234;49.344;11.120;2023-07-31T02:26:15;3.42;;;1.65;;
18217;SDS011;9234;49.344;11.120;2023-07-31T02:28:43;2.63;;;1.33;;
18217;SDS011;9234;49.344;11.120;2023-07-31T02:31:13;4.13;;;1.30;;
18217;SDS011;9234;49.344;11.120;2023-07-31T02:33:41;5.28;;;1.33;;
18217;SDS011;9234;49.344;11.120;2023-07-31T02:36:10;4.40;;;1.70;;
18217;SDS011;9234;49.344;11.120;2023-07-31T02:38:38;2.92;;;1.30;;
18217;SDS011;9234;49.344;11.120;2023-07-31T02:41:07;5.70;;;1.42;;
18217;SDS011;9234;49.344;11.120;2023-07-31T02:43:35;1.70;;;1.35;;
18217;SDS011;9234;49.344;11.120;2023-07-31T02:46:03;3.30;;;1.67;;
18217;SDS011;9234;49.344;11.120;2023-07-31T02:48:34;4.13;;;1.75;;
18217;SDS011;9234;49.344;11.120;2023-07-31T02:51:02;5.18;;;1.58;;
18217;SDS011;9234;49.344;11.120;2023-07-31T02:53:30;7.72;;;1.67;;
18217;SDS011;9234;49.344;11.120;2023-07-31T02:55:59;5.85;;;2.17;;
18217;SDS011;9234;49.344;11.120;2023-07-31T02:58:27;4.53;;;1.30;;
18217;SDS011;9234;49.344;11.120;2023-07-31T03:00:57;4.82;;;1.50;;
18217;SDS011;9234;49.344;11.120;2023-07-31T03:03:26;5.03;;;1.45;;
18217;SDS011;9234;49.344;11.120;2023-07-31T03:05:56;3.90;;;1.25;;
18217;SDS011;9234;49.344;11.120;2023-07-31T03:08:25;4.18;;;1.60;;
18217;SDS011;9234;49.344;11.120;2023-07-31T03:10:53;5.65;;;1.50;;
18217;SDS011;9234;49.344;11.120;2023-07-31T03:13:24;4.90;;;1.50;;
18217;SDS011;9234;49.344;11.120;2023-07-31T03:15:52;4.40;;;1.38;;
18217;SDS011;9234;49.344;11.120;2023-07-31T03:18:20;2.53;;;1.13;;
18217;SDS011;9234;49.344;11.120;2023-07-31T03:20:48;4.85;;;1.60;;
18217;SDS011;9234;49.344;11.120;2023-07-31T03:23:18;4.80;;;1.77;;
18217;SDS011;9234;49.344;11.120;2023-07-31T03:25:56;2.95;;;1.48;;
18217;SDS011;9234;49.344;11.120;2023-07-31T03:28:28;2.88;;;1.33;;
18217;SDS011;9234;49.344;11.120;2023-07-31T03:30:57;1.88;;;1.70;;
18217;SDS011;9234;49.344;11.120;2023-07-31T03:33:26;4.82;;;1.50;;
18217;SDS011;9234;49.344;11.120;2023-07-31T03:35:55;5.53;;;1.63;;
18217;SDS011;9234;49.344;11.120;2023-07-31T03:38:25;2.45;;;1.13;;
18217;SDS011;9234;49.344;11.120;2023-07-31T03:40:53;4.43;;;1.40;;
18217;SDS011;9234;49.344;11.120;2023-07-31T03:43:22;3.72;;;1.50;;
18217;SDS011;9234;49.344;11.120;2023-07-31T03:45:51;2.60;;;1.55;;
18217;SDS011;9234;49.344;11.120;2023-07-31T03:48:20;2.08;;;1.30;;
18217;SDS011;9234;49.344;11.120;2023-07-31T03:50:48;4.20;;;1.60;;
18217;SDS011;9234;49.344;11.120;2023-07-31T03:53:17;4.40;;;1.50;;
18217;SDS011;9234;49.344;11.120;2023-07-31T03:55:46;5.03;;;1.67;;
18217;SDS011;9234;49.344;11.120;2023-07-31T03:58:15;2.63;;;1.40;;
18217;SDS011;9234;49.344;11.120;2023-07-31T04:00:43;4.68;;;1.73;;
18217;SDS011;9234;49.344;11.120;2023-07-31T04:03:13;3.65;;;1.42;;
18217;SDS011;9234;49.344;11.120;2023-07-31T04:05:41;3.55;;;1.38;;
18217;SDS011;9234;49.344;11.120;2023-07-31T04:08:10;5.13;;;1.60;;
18217;SDS011;9234;49.344;11.120;2023-07-31T04:10:38;3.38;;;1.40;;
18217;SDS011;9234;49.344;11.120;2023-07-31T04:13:08;3.33;;;1.65;;
18217;SDS011;9234;49.344;11.120;2023-07-31T04:15:37;2.08;;;1.70;;
18217;SDS011;9234;49.344;11.120;2023-07-31T04:18:05;2.17;;;1.30;;
18217;SDS011;9234;49.344;11.120;2023-07-31T04:20:34;2.70;;;1.35;;
18217;SDS011;9234;49.344;11.120;2023-07-31T04:23:05;3.05;;;1.48;;
18217;SDS011;9234;49.344;11.120;2023-07-31T04:25:34;2.95;;;1.15;;
18217;SDS011;9234;49.344;11.120;2023-07-31T04:28:02;3.95;;;1.65;;
18217;SDS011;9234;49.344;11.120;2023-07-31T04:30:32;3.15;;;0.98;;
18217;SDS011;9234;49.344;11.120;2023-07-31T04:33:01;1.42;;;1.20;;
18217;SDS011;9234;49.344;11.120;2023-07-31T04:35:29;3.85;;;1.60;;
18217;SDS011;9234;49.344;11.120;2023-07-31T04:37:57;4.25;;;1.42;;
18217;SDS011;9234;49.344;11.120;2023-07-31T04:40:26;2.95;;;1.40;;
18217;SDS011;9234;49.344;11.120;2023-07-31T04:42:54;2.75;;;1.42;;
18217;SDS011;9234;49.344;11.120;2023-07-31T04:45:22;6.43;;;2.03;;
18217;SDS011;9234;49.344;11.120;2023-07-31T04:47:52;5.18;;;1.70;;
18217;SDS011;9234;49.344;11.120;2023-07-31T04:50:21;3.45;;;1.52;;
18217;SDS011;9234;49.344;11.120;2023-07-31T04:52:49;5.65;;;1.40;;
18217;SDS011;9234;49.344;11.120;2023-07-31T04:55:17;5.18;;;1.95;;
18217;SDS011;9234;49.344;11.120;2023-07-31T04:57:45;2.33;;;1.30;;
18217;SDS011;9234;49.344;11.120;2023-07-31T05:00:14;3.25;;;1.48;;
18217;SDS011;9234;49.344;11.120;2023-07-31T05:02:43;6.45;;;1.60;;
18217;SDS011;9234;49.344;11.120;2023-07-31T05:05:13;2.45;;;1.48;;
18217;SDS011;9234;49.344;11.120;2023-07-31T05:07:42;2.67;;;1.50;;
18217;SDS011;9234;49.344;11.120;2023-07-31T05:10:11;3.67;;;1.48;;
18217;SDS011;9234;49.344;11.120;2023-07-31T05:12:39;3.45;;;1.40;;
18217;SDS011;9234;49.344;11.120;2023-07-31T05:15:08;5.30;;;1.70;;
18217;SDS011;9234;49.344;11.120;2023-07-31T05:17:37;5.13;;;1.67;;
18217;SDS011;9234;49.344;11.120;2023-07-31T05:20:06;4.38;;;1.50;;
18217;SDS011;9234;49.344;11.120;2023-07-31T05:22:37;3.42;;;1.50;;
18217;SDS011;9234;49.344;11.120;2023-07-31T05:25:06;2.80;;;1.40;;
18217;SDS011;9234;49.344;11.120;2023-07-31T05:27:35;3.65;;;1.60;;
18217;SDS011;9234;49.344;11.120;2023-07-31T05:30:04;2.53;;;1.60;;
18217;SDS011;9234;49.344;11.120;2023-07-31T05:32:34;4.10;;;1.35;;
18217;SDS011;9234;49.344;11.120;2023-07-31T05:35:03;5.93;;;1.77;;
18217;SDS011;9234;49.344;11.120;2023-07-31T05:37:33;4.45;;;1.33;;
18217;SDS011;9234;49.344;11.120;2023-07-31T05:40:06;4.38;;;1.40;;
18217;SDS011;9234;49.344;11.120;2023-07-31T05:42:36;3.03;;;1.35;;
18217;SDS011;9234;49.344;11.120;2023-07-31T05:45:05;2.80;;;1.73;;
18217;SDS011;9234;49.344;11.120;2023-07-31T05:47:35;4.05;;;1.35;;
18217;SDS011;9234;49.344;11.120;2023-07-31T05:50:03;2.72;;;1.45;;
18217;SDS011;9234;49.344;11.120;2023-07-31T05:52:33;3.65;;;1.70;;
18217;SDS011;9234;49.344;11.120;2023-07-31T05:55:01;5.40;;;1.58;;
18217;SDS011;9234;49.344;11.120;2023-07-31T05:57:31;3.13;;;2.05;;
18217;SDS011;9234;49.344;11.120;2023-07-31T06:00:00;5.47;;;1.50;;
18217;SDS011;9234;49.344;11.120;2023-07-31T06:02:30;2.13;;;1.15;;
18217;SDS011;9234;49.344;11.120;2023-07-31T06:05:03;4.22;;;1.50;;
18217;SDS011;9234;49.344;11.120;2023-07-31T06:07:33;4.18;;;1.55;;
18217;SDS011;9234;49.344;11.120;2023-07-31T06:10:01;1.90;;;1.23;;
18217;SDS011;9234;49.344;11.120;2023-07-31T06:12:33;5.93;;;1.90;;
18217;SDS011;9234;49.344;11.120;2023-07-31T06:15:03;2.30;;;1.27;;
18217;SDS011;9234;49.344;11.120;2023-07-31T06:17:32;5.30;;;1.80;;
18217;SDS011;9234;49.344;11.120;2023-07-31T06:20:00;3.72;;;1.42;;
18217;SDS011;9234;49.344;11.120;2023-07-31T06:22:31;3.20;;;1.67;;
18217;SDS011;9234;49.344;11.120;2023-07-31T06:24:59;3.45;;;1.73;;
18217;SDS011;9234;49.344;11.120;2023-07-31T06:27:28;3.22;;;1.55;;
18217;SDS011;9234;49.344;11.120;2023-07-31T06:29:57;4.63;;;1.85;;
18217;SDS011;9234;49.344;11.120;2023-07-31T06:32:26;5.10;;;1.85;;
18217;SDS011;9234;49.344;11.120;2023-07-31T06:34:54;2.63;;;1.40;;
18217;SDS011;9234;49.344;11.120;2023-07-31T06:37:23;4.07;;;1.50;;
18217;SDS011;9234;49.344;11.120;2023-07-31T06:39:51;3.10;;;1.52;;
18217;SDS011;9234;49.344;11.120;2023-07-31T06:42:20;2.47;;;1.73;;
18217;SDS011;9234;49.344;11.120;2023-07-31T06:44:49;4.80;;;1.73;;
18217;SDS011;9234;49.344;11.120;2023-07-31T06:47:19;4.50;;;1.65;;
18217;SDS011;9234;49.344;11.120;2023-07-31T06:49:47;4.00;;;1.75;;
18217;SDS011;9234;49.344;11.120;2023-07-31T06:52:15;5.32;;;1.67;;
18217;SDS011;9234;49.344;11.120;2023-07-31T06:54:44;4.68;;;1.65;;
18217;SDS011;9234;49.344;11.120;2023-07-31T06:57:28;4.10;;;1.77;;
18217;SDS011;9234;49.344;11.120;2023-07-31T06:59:56;6.28;;;1.92;;
18217;SDS011;9234;49.344;11.120;2023-07-31T07:02:26;4.93;;;1.88;;
18217;SDS011;9234;49.344;11.120;2023-07-31T07:04:54;6.97;;;2.20;;
18217;SDS011;9234;49.344;11.120;2023-07-31T07:07:23;4.25;;;1.60;;
18217;SDS011;9234;49.344;11.120;2023-07-31T07:09:52;3.58;;;1.45;;
18217;SDS011;9234;49.344;11.120;2023-07-31T07:12:20;4.20;;;1.95;;
18217;SDS011;9234;49.344;11.120;2023-07-31T07:14:48;5.05;;;1.70;;
18217;SDS011;9234;49.344;11.120;2023-07-31T07:17:19;3.67;;;1.63;;
18217;SDS011;9234;49.344;11.120;2023-07-31T07:19:48;4.00;;;2.00;;
18217;SDS011;9234;49.344;11.120;2023-07-31T07:22:17;6.00;;;2.08;;
18217;SDS011;9234;49.344;11.120;2023-07-31T07:24:46;5.35;;;2.17;;
18217;SDS011;9234;49.344;11.120;2023-07-31T07:27:14;2.95;;;1.58;;
18217;SDS011;9234;49.344;11.120;2023-07-31T07:29:42;4.22;;;2.38;;
18217;SDS011;9234;49.344;11.120;2023-07-31T07:32:11;5.20;;;1.90;;
18217;SDS011;9234;49.344;11.120;2023-07-31T07:34:40;3.67;;;1.88;;
18217;SDS011;9234;49.344;11.120;2023-07-31T07:37:09;4.15;;;2.50;;
18217;SDS011;9234;49.344;11.120;2023-07-31T07:39:38;4.57;;;2.03;;
18217;SDS011;9234;49.344;11.120;2023-07-31T07:42:06;7.28;;;2.67;;
18217;SDS011;9234;49.344;11.120;2023-07-31T07:44:35;3.88;;;2.15;;
18217;SDS011;9234;49.344;11.120;2023-07-31T07:47:04;5.18;;;1.95;;
18217;SDS011;9234;49.344;11.120;2023-07-31T07:49:35;4.25;;;2.10;;
18217;SDS011;9234;49.344;11.120;2023-07-31T07:52:03;4.68;;;2.03;;
18217;SDS011;9234;49.344;11.120;2023-07-31T07:54:34;5.88;;;2.33;;
18217;SDS011;9234;49.344;11.120;2023-07-31T07:57:03;4.50;;;2.30;;
18217;SDS011;9234;49.344;11.120;2023-07-31T07:59:32;4.97;;;1.70;;
18217;SDS011;9234;49.344;11.120;2023-07-31T08:02:00;3.60;;;2.05;;
18217;SDS011;9234;49.344;11.120;2023-07-31T08:04:29;4.60;;;2.00;;
18217;SDS011;9234;49.344;11.120;2023-07-31T08:06:57;7.22;;;2.22;;
18217;SDS011;9234;49.344;11.120;2023-07-31T08:09:25;4.70;;;1.90;;
18217;SDS011;9234;49.344;11.120;2023-07-31T08:11:55;4.10;;;2.03;;
18217;SDS011;9234;49.344;11.120;2023-07-31T08:14:28;4.32;;;2.08;;
18217;SDS011;9234;49.344;11.120;2023-07-31T08:16:58;5.43;;;2.08;;
18217;SDS011;9234;49.344;11.120;2023-07-31T08:19:28;5.05;;;2.00;;
18217;SDS011;9234;49.344;11.120;2023-07-31T08:21:56;4.90;;;2.10;;
18217;SDS011;9234;49.344;11.120;2023-07-31T08:24:25;3.00;;;1.70;;
18217;SDS011;9234;49.344;11.120;2023-07-31T08:26:53;7.20;;;2.42;;
18217;SDS011;9234;49.344;11.120;2023-07-31T08:29:23;4.75;;;2.20;;
18217;SDS011;9234;49.344;11.120;2023-07-31T08:31:52;4.30;;;1.83;;
18217;SDS011;9234;49.344;11.120;2023-07-31T08:34:20;4.47;;;1.77;;
18217;SDS011;9234;49.344;11.120;2023-07-31T08:36:49;3.80;;;2.03;;
18217;SDS011;9234;49.344;11.120;2023-07-31T08:39:17;5.35;;;2.10;;
18217;SDS011;9234;49.344;11.120;2023-07-31T08:41:45;4.35;;;2.13;;
18217;SDS011;9234;49.344;11.120;2023-07-31T08:44:16;5.80;;;2.38;;
18217;SDS011;9234;49.344;11.120;2023-07-31T08:46:46;4.38;;;1.88;;
18217;SDS011;9234;49.344;11.120;2023-07-31T08:49:16;4.30;;;1.95;;
18217;SDS011;9234;49.344;11.120;2023-07-31T08:51:48;6.13;;;2.15;;
18217;SDS011;9234;49.344;11.120;2023-07-31T08:54:19;5.20;;;2.53;;
18217;SDS011;9234;49.344;11.120;2023-07-31T08:56:48;4.43;;;2.20;;
18217;SDS011;9234;49.344;11.120;2023-07-31T08:59:19;3.60;;;2.00;;
18217;SDS011;9234;49.344;11.120;2023-07-31T09:01:50;4.95;;;2.35;;
18217;SDS011;9234;49.344;11.120;2023-07-31T09:04:21;3.85;;;1.90;;
18217;SDS011;9234;49.344;11.120;2023-07-31T09:06:53;2.17;;;1.52;;
18217;SDS011;9234;49.344;11.120;2023-07-31T09:09:29;5.22;;;2.05;;
18217;SDS011;9234;49.344;11.120;2023-07-31T09:11:58;5.18;;;2.15;;
18217;SDS011;9234;49.344;11.120;2023-07-31T09:14:28;4.55;;;2.20;;
18217;SDS011;9234;49.344;11.120;2023-07-31T09:16:57;4.45;;;2.17;;
18217;SDS011;9234;49.344;11.120;2023-07-31T09:19:27;6.00;;;2.42;;
18217;SDS011;9234;49.344;11.120;2023-07-31T09:21:57;3.53;;;1.67;;
18217;SDS011;9234;49.344;11.120;2023-07-31T09:24:26;4.32;;;2.17;;
18217;SDS011;9234;49.344;11.120;2023-07-31T09:26:57;4.15;;;1.73;;
18217;SDS011;9234;49.344;11.120;2023-07-31T09:29:28;7.22;;;2.05;;
18217;SDS011;9234;49.344;11.120;2023-07-31T09:31:57;5.00;;;1.80;;
18217;SDS011;9234;49.344;11.120;2023-07-31T09:34:29;5.97;;;2.08;;
18217;SDS011;9234;49.344;11.120;2023-07-31T09:37:04;10.65;;;2.78;;
18217;SDS011;9234;49.344;11.120;2023-07-31T09:39:35;4.65;;;2.17;;
18217;SDS011;9234;49.344;11.120;2023-07-31T09:42:14;4.85;;;1.95;;
18217;SDS011;9234;49.344;11.120;2023-07-31T09:44:56;1.73;;;1.63;;
18217;SDS011;9234;49.344;11.120;2023-07-31T09:47:36;9.45;;;3.13;;
18217;SDS011;9234;49.344;11.120;2023-07-31T09:50:06;3.35;;;2.22;;
18217;SDS011;9234;49.344;11.120;2023-07-31T09:52:38;3.40;;;2.05;;
18217;SDS011;9234;49.344;11.120;2023-07-31T09:55:06;3.50;;;1.92;;
18217;SDS011;9234;49.344;11.120;2023-07-31T09:57:36;6.95;;;1.85;;
18217;SDS011;9234;49.344;11.120;2023-07-31T10:00:11;4.05;;;1.55;;
18217;SDS011;9234;49.344;11.120;2023-07-31T10:02:41;3.38;;;1.98;;
18217;SDS011;9234;49.344;11.120;2023-07-31T10:05:15;3.58;;;1.77;;
18217;SDS011;9234;49.344;11.120;2023-07-31T10:07:45;3.03;;;1.80;;
18217;SDS011;9234;49.344;11.120;2023-07-31T10:10:21;3.08;;;1.30;;
18217;SDS011;9234;49.344;11.120;2023-07-31T10:12:51;2.85;;;2.22;;
18217;SDS011;9234;49.344;11.120;2023-07-31T10:15:22;3.55;;;2.30;;
18217;SDS011;9234;49.344;11.120;2023-07-31T10:17:51;3.75;;;1.83;;
18217;SDS011;9234;49.344;11.120;2023-07-31T10:20:23;2.60;;;2.08;;
18217;SDS011;9234;49.344;11.120;2023-07-31T10:22:53;3.75;;;1.70;;
18217;SDS011;9234;49.344;11.120;2023-07-31T10:25:25;3.30;;;1.85;;
18217;SDS011;9234;49.344;11.120;2023-07-31T10:27:54;3.42;;;2.20;;
18217;SDS011;9234;49.344;11.120;2023-07-31T10:30:26;2.28;;;1.50;;
18217;SDS011;9234;49.344;11.120;2023-07-31T10:32:58;2.88;;;1.90;;
18217;SDS011;9234;49.344;11.120;2023-07-31T10:35:28;4.20;;;1.95;;
18217;SDS011;9234;49.344;11.120;2023-07-31T10:38:01;7.53;;;2.53;;
18217;SDS011;9234;49.344;11.120;2023-07-31T10:40:38;4.22;;;1.90;;
18217;SDS011;9234;49.344;11.120;2023-07-31T10:43:07;3.10;;;1.80;;
18217;SDS011;9234;49.344;11.120;2023-07-31T10:45:39;4.38;;;2.47;;
18217;SDS011;9234;49.344;11.120;2023-07-31T10:48:12;7.60;;;2.50;;
18217;SDS011;9234;49.344;11.120;2023-07-31T10:50:46;2.90;;;1.75;;
18217;SDS011;9234;49.344;11.120;2023-07-31T10:53:23;5.40;;;1.80;;
18217;SDS011;9234;49.344;11.120;2023-07-31T10:55:53;3.65;;;1.92;;
18217;SDS011;9234;49.344;11.120;2023-07-31T10:58:27;3.38;;;1.90;;
18217;SDS011;9234;49.344;11.120;2023-07-31T11:00:59;3.35;;;1.95;;
18217;SDS011;9234;49.344;11.120;2023-07-31T11:03:42;5.50;;;2.13;;
18217;SDS011;9234;49.344;11.120;2023-07-31T11:06:13;4.35;;;2.13;;
18217;SDS011;9234;49.344;11.120;2023-07-31T11:08:44;3.55;;;1.83;;
18217;SDS011;9234;49.344;11.120;2023-07-31T11:11:15;3.63;;;1.83;;
18217;SDS011;9234;49.344;11.120;2023-07-31T11:13:47;3.20;;;1.83;;
18217;SDS011;9234;49.344;11.120;2023-07-31T11:16:20;3.33;;;2.03;;
18217;SDS011;9234;49.344;11.120;2023-07-31T11:18:51;3.85;;;1.88;;
18217;SDS011;9234;49.344;11.120;2023-07-31T11:21:23;2.83;;;1.77;;
18217;SDS011;9234;49.344;11.120;2023-07-31T11:23:53;4.03;;;2.10;;
18217;SDS011;9234;49.344;11.120;2023-07-31T11:26:25;2.65;;;2.00;;
18217;SDS011;9234;49.344;11.120;2023-07-31T11:28:54;3.60;;;1.98;;
18217;SDS011;9234;49.344;11.120;2023-07-31T11:31:24;2.42;;;1.98;;
18217;SDS011;9234;49.344;11.120;2023-07-31T11:34:03;4.78;;;2.35;;
18217;SDS011;9234;49.344;11.120;2023-07-31T11:36:32;3.40;;;1.92;;
18217;SDS011;9234;49.344;11.120;2023-07-31T11:39:04;4.07;;;2.05;;
18217;SDS011;9234;49.344;11.120;2023-07-31T11:41:33;4.97;;;1.85;;
18217;SDS011;9234;49.344;11.120;2023-07-31T11:44:01;5.20;;;2.67;;
18217;SDS011;9234;49.344;11.120;2023-07-31T11:46:44;4.72;;;2.30;;
18217;SDS011;9234;49.344;11.120;2023-07-31T11:49:13;3.88;;;2.15;;
18217;SDS011;9234;49.344;11.120;2023-07-31T11:51:42;5.60;;;2.30;;
18217;SDS011;9234;49.344;11.120;2023-07-31T11:54:11;4.47;;;1.98;;
18217;SDS011;9234;49.344;11.120;2023-07-31T11:56:43;4.30;;;1.75;;
18217;SDS011;9234;49.344;11.120;2023-07-31T11:59:12;2.28;;;1.80;;
18217;SDS011;9234;49.344;11.120;2023-07-31T12:01:40;4.10;;;2.50;;
18217;SDS011;9234;49.344;11.120;2023-07-31T12:04:11;3.22;;;2.33;;
18217;SDS011;9234;49.344;11.120;2023-07-31T12:06:39;2.80;;;2.13;;
18217;SDS011;9234;49.344;11.120;2023-07-31T12:09:08;2.25;;;1.95;;
18217;SDS011;9234;49.344;11.120;2023-07-31T12:11:42;3.35;;;2.40;;
18217;SDS011;9234;49.344;11.120;2023-07-31T12:14:19;3.50;;;2.10;;
18217;SDS011;9234;49.344;11.120;2023-07-31T12:16:52;3.63;;;2.60;;
18217;SDS011;9234;49.344;11.120;2023-07-31T12:19:24;2.90;;;2.22;;
18217;SDS011;9234;49.344;11.120;2023-07-31T12:21:56;5.80;;;2.85;;
18217;SDS011;9234;49.344;11.120;2023-07-31T12:24:25;7.80;;;2.70;;
18217;SDS011;9234;49.344;11.120;2023-07-31T12:26:54;5.80;;;2.83;;
18217;SDS011;9234;49.344;11.120;2023-07-31T12:29:23;4.40;;;3.05;;
18217;SDS011;9234;49.344;11.120;2023-07-31T12:32:01;5.05;;;2.70;;
18217;SDS011;9234;49.344;11.120;2023-07-31T12:34:31;7.65;;;2.92;;
18217;SDS011;9234;49.344;11.120;2023-07-31T12:37:10;6.28;;;3.00;;
18217;SDS011;9234;49.344;11.120;2023-07-31T12:39:38;3.38;;;2.55;;
18217;SDS011;9234;49.344;11.120;2023-07-31T12:42:09;6.47;;;3.10;;
18217;SDS011;9234;49.344;11.120;2023-07-31T12:44:38;5.35;;;2.85;;
18217;SDS011;9234;49.344;11.120;2023-07-31T12:47:06;4.20;;;2.78;;
18217;SDS011;9234;49.344;11.120;2023-07-31T12:49:36;7.57;;;3.28;;
18217;SDS011;9234;49.344;11.120;2023-07-31T12:52:06;6.63;;;3.53;;
18217;SDS011;9234;49.344;11.120;2023-07-31T12:54:35;4.13;;;2.40;;
18217;SDS011;9234;49.344;11.120;2023-07-31T12:57:04;4.90;;;2.90;;
18217;SDS011;9234;49.344;11.120;2023-07-31T12:59:32;15.85;;;4.35;;
18217;SDS011;9234;49.344;11.120;2023-07-31T13:02:01;6.22;;;2.92;;
18217;SDS011;9234;49.344;11.120;2023-07-31T13:04:29;4.40;;;2.85;;
18217;SDS011;9234;49.344;11.120;2023-07-31T13:06:59;5.15;;;3.03;;
18217;SDS011;9234;49.344;11.120;2023-07-31T13:09:27;4.43;;;2.65;;
18217;SDS011;9234;49.344;11.120;2023-07-31T13:11:56;4.15;;;2.53;;
18217;SDS011;9234;49.344;11.120;2023-07-31T13:14:24;4.57;;;2.88;;
18217;SDS011;9234;49.344;11.120;2023-07-31T13:16:52;4.93;;;2.85;;
18217;SDS011;9234;49.344;11.120;2023-07-31T13:19:21;3.90;;;2.70;;
18217;SDS011;9234;49.344;11.120;2023-07-31T13:21:49;4.47;;;2.60;;
18217;SDS011;9234;49.344;11.120;2023-07-31T13:24:19;4.32;;;2.95;;
18217;SDS011;9234;49.344;11.120;2023-07-31T13:26:48;5.78;;;2.80;;
18217;SDS011;9234;49.344;11.120;2023-07-31T13:29:16;5.13;;;2.78;;
18217;SDS011;9234;49.344;11.120;2023-07-31T13:31:45;4.95;;;2.60;;
18217;SDS011;9234;49.344;11.120;2023-07-31T13:34:13;6.50;;;2.85;;
18217;SDS011;9234;49.344;11.120;2023-07-31T13:36:42;6.60;;;3.40;;
18217;SDS011;9234;49.344;11.120;2023-07-31T13:39:10;5.05;;;2.97;;
18217;SDS011;9234;49.344;11.120;2023-07-31T13:41:40;7.90;;;3.42;;
18217;SDS011;9234;49.344;11.120;2023-07-31T13:44:08;3.95;;;2.33;;
18217;SDS011;9234;49.344;11.120;2023-07-31T13:46:36;4.75;;;2.85;;
18217;SDS011;9234;49.344;11.120;2023-07-31T13:49:05;2.97;;;2.58;;
18217;SDS011;9234;49.344;11.120;2023-07-31T13:51:34;4.15;;;2.55;;
18217;SDS011;9234;49.344;11.120;2023-07-31T13:54:02;4.90;;;2.55;;
18217;SDS011;9234;49.344;11.120;2023-07-31T13:56:31;4.00;;;2.47;;
18217;SDS011;9234;49.344;11.120;2023-07-31T13:59:00;5.20;;;2.90;;
18217;SDS011;9234;49.344;11.120;2023-07-31T14:01:28;8.20;;;3.13;;
18217;SDS011;9234;49.344;11.120;2023-07-31T14:03:57;7.65;;;2.47;;
18217;SDS011;9234;49.344;11.120;2023-07-31T14:06:28;6.07;;;2.85;;
18217;SDS011;9234;49.344;11.120;2023-07-31T14:09:00;5.28;;;2.60;;
18217;SDS011;9234;49.344;11.120;2023-07-31T14:11:30;7.10;;;2.80;;
18217;SDS011;9234;49.344;11.120;2023-07-31T14:14:00;5.10;;;2.75;;
18217;SDS011;9234;49.344;11.120;2023-07-31T14:16:29;4.65;;;2.80;;
18217;SDS011;9234;49.344;11.120;2023-07-31T14:18:58;4.70;;;2.70;;
18217;SDS011;9234;49.344;11.120;2023-07-31T14:21:27;5.05;;;2.58;;
18217;SDS011;9234;49.344;11.120;2023-07-31T14:23:55;6.10;;;2.70;;
18217;SDS011;9234;49.344;11.120;2023-07-31T14:26:24;6.97;;;2.97;;
18217;SDS011;9234;49.344;11.120;2023-07-31T14:28:52;5.30;;;2.50;;
18217;SDS011;9234;49.344;11.120;2023-07-31T14:31:23;5.20;;;2.83;;
18217;SDS011;9234;49.344;11.120;2023-07-31T14:33:52;3.72;;;2.42;;
18217;SDS011;9234;49.344;11.120;2023-07-31T14:36:23;5.45;;;2.20;;
18217;SDS011;9234;49.344;11.120;2023-07-31T14:38:52;3.63;;;2.70;;
18217;SDS011;9234;49.344;11.120;2023-07-31T14:41:20;3.30;;;2.58;;
18217;SDS011;9234;49.344;11.120;2023-07-31T14:43:48;2.45;;;2.25;;
18217;SDS011;9234;49.344;11.120;2023-07-31T14:46:17;6.53;;;2.58;;
18217;SDS011;9234;49.344;11.120;2023-07-31T14:48:46;5.15;;;2.67;;
18217;SDS011;9234;49.344;11.120;2023-07-31T14:51:15;5.38;;;2.30;;
18217;SDS011;9234;49.344;11.120;2023-07-31T14:53:44;3.25;;;2.00;;
18217;SDS011;9234;49.344;11.120;2023-07-31T14:56:13;3.85;;;2.30;;
18217;SDS011;9234;49.344;11.120;2023-07-31T14:58:45;4.20;;;2.42;;
18217;SDS011;9234;49.344;11.120;2023-07-31T15:01:13;5.22;;;2.50;;
18217;SDS011;9234;49.344;11.120;2023-07-31T15:03:44;3.42;;;2.33;;
18217;SDS011;9234;49.344;11.120;2023-07-31T15:06:14;3.67;;;2.47;;